Time;durP1;ratioP1;P1;durP2;ratioP2;P2;SDS_P1;SDS_P2;PMS_P1;PMS_P2;Temp;Humidity;BMP_temperature;BMP_pressure;BME280_temperature;BME280_humidity;BME280_pressure;Samples;Min_cycle;Max_cycle;Signal;HPM_P1;HPM_P2
2022/07/06 00:01:57;;;;;;;2.50;1.50;;;24.10;50.30;;;;;;5097516;28;20170;-88
2022/07/06 00:04:22;;;;;;;2.43;1.40;;;24.00;50.30;;;;;;5098837;28;20174;-88
2022/07/06 00:06:48;;;;;;;2.50;1.30;;;24.10;50.30;;;;;;5095509;28;20242;-89
2022/07/06 00:09:26;;;;;;;3.10;1.67;;;24.00;50.40;;;;;;5060297;28;20411;-89
2022/07/06 00:15:14;;;;;;;1.63;1.30;;;23.90;50.50;;;;;;5111452;28;20500;-89
2022/07/06 00:20:52;;;;;;;1.87;1.70;;;23.80;50.50;;;;;;5108725;28;20204;-89
2022/07/06 00:23:21;;;;;;;2.17;1.50;;;23.70;50.50;;;;;;5080715;28;20170;-90
2022/07/06 00:26:18;;;;;;;1.43;1.33;;;23.70;50.70;;;;;;5083171;28;20281;-90
2022/07/06 00:32:37;;;;;;;2.40;1.83;;;23.70;50.70;;;;;;5103159;28;20177;-90
2022/07/06 00:35:04;;;;;;;1.63;1.50;;;23.80;50.60;;;;;;5068820;28;20181;-89
2022/07/06 00:37:29;;;;;;;1.93;1.80;;;23.80;50.60;;;;;;5065781;28;20362;-90
2022/07/06 00:40:38;;;;;;;2.13;1.70;;;23.80;50.80;;;;;;5103384;28;20155;-90
2022/07/06 00:43:50;;;;;;;1.30;1.20;;;23.70;50.50;;;;;;5013826;28;20450;-90
2022/07/06 00:46:16;;;;;;;3.73;2.00;;;23.70;50.70;;;;;;5031466;28;20187;-90
2022/07/06 00:50:13;;;;;;;2.37;1.50;;;23.80;50.70;;;;;;5055749;28;20204;-90
2022/07/06 00:51:52;;;;;;;2.00;1.30;;;23.70;50.80;;;;;;5038866;28;20175;-90
2022/07/06 00:54:18;;;;;;;2.50;2.00;;;23.60;50.90;;;;;;5048305;28;20174;-90
2022/07/06 00:56:47;;;;;;;2.00;1.50;;;23.70;51.00;;;;;;5040377;28;20171;-89
2022/07/06 00:59:28;;;;;;;1.97;1.53;;;23.60;50.90;;;;;;5056973;28;20631;-90
2022/07/06 01:01:58;;;;;;;2.53;1.90;;;23.70;50.90;;;;;;5014767;28;20313;-90
2022/07/06 01:05:18;;;;;;;1.33;1.20;;;23.70;51.00;;;;;;5002122;28;20284;-90
2022/07/06 01:11:20;;;;;;;1.60;1.50;;;23.60;51.00;;;;;;5010236;28;20282;-90
2022/07/06 01:13:47;;;;;;;1.77;1.30;;;23.70;51.10;;;;;;5043893;28;20249;-90
2022/07/06 01:16:21;;;;;;;2.23;1.40;;;23.70;51.00;;;;;;5069539;28;20178;-90
2022/07/06 01:18:50;;;;;;;1.90;1.80;;;23.60;50.90;;;;;;5076091;28;20561;-90
2022/07/06 01:21:16;;;;;;;1.83;1.73;;;23.60;51.10;;;;;;5079862;28;20544;-90
2022/07/06 01:23:47;;;;;;;2.13;1.00;;;23.60;51.10;;;;;;5122005;22;20227;-73
2022/07/06 01:26:19;;;;;;;1.60;1.40;;;23.60;51.10;;;;;;5073559;28;20198;-72
2022/07/06 01:28:51;;;;;;;1.60;1.50;;;23.60;51.10;;;;;;5066845;28;20261;-72
2022/07/06 01:31:41;;;;;;;2.07;1.80;;;23.50;51.10;;;;;;5030292;28;20247;-72
2022/07/06 01:34:09;;;;;;;1.90;1.70;;;23.50;51.10;;;;;;5049990;28;20239;-71
2022/07/06 01:36:38;;;;;;;2.00;1.80;;;23.50;51.00;;;;;;5053604;28;20229;-72
2022/07/06 01:39:03;;;;;;;2.67;1.50;;;23.50;51.10;;;;;;5026879;28;20295;-72
2022/07/06 01:41:32;;;;;;;1.63;1.30;;;23.50;51.20;;;;;;5051658;28;20357;-72
2022/07/06 01:43:58;;;;;;;2.67;1.53;;;23.40;51.00;;;;;;5043814;28;20193;-72
2022/07/06 01:46:24;;;;;;;1.93;1.50;;;23.40;51.30;;;;;;5058590;28;20466;-72
2022/07/06 01:48:49;;;;;;;1.50;1.33;;;23.40;51.30;;;;;;5075018;28;20218;-72
2022/07/06 01:51:16;;;;;;;1.50;1.40;;;23.40;51.30;;;;;;5033690;28;20518;-72
2022/07/06 01:54:02;;;;;;;1.47;1.37;;;23.40;51.30;;;;;;5062593;28;20244;-72
2022/07/06 01:56:28;;;;;;;3.37;2.03;;;23.40;51.30;;;;;;5069368;28;20196;-73
2022/07/06 01:58:53;;;;;;;1.30;1.20;;;23.30;51.20;;;;;;5026159;28;20317;-72
2022/07/06 02:01:20;;;;;;;1.50;1.40;;;23.30;51.40;;;;;;5030628;28;20176;-72
2022/07/06 02:03:46;;;;;;;1.60;1.40;;;23.30;51.40;;;;;;5069916;28;20179;-72
2022/07/06 02:06:23;;;;;;;2.37;1.50;;;23.20;51.40;;;;;;5050592;28;20178;-72
2022/07/06 02:08:51;;;;;;;1.90;1.40;;;23.30;51.50;;;;;;5058680;28;20478;-72
2022/07/06 02:11:17;;;;;;;1.57;1.40;;;23.30;51.50;;;;;;5050032;28;20560;-72
2022/07/06 02:13:44;;;;;;;1.90;1.80;;;23.30;51.40;;;;;;5022216;28;20247;-72
2022/07/06 02:16:11;;;;;;;2.13;1.50;;;23.30;51.50;;;;;;5059139;28;20180;-72
2022/07/06 02:18:36;;;;;;;1.80;1.60;;;23.30;51.50;;;;;;5052548;28;20555;-72
2022/07/06 02:21:16;;;;;;;2.17;1.80;;;23.30;51.50;;;;;;5044464;28;20240;-72
2022/07/06 02:23:42;;;;;;;1.87;1.77;;;23.30;51.50;;;;;;5057107;28;20333;-70
2022/07/06 02:26:10;;;;;;;1.53;1.37;;;23.30;51.50;;;;;;5025863;28;20445;-72
2022/07/06 02:28:37;;;;;;;1.50;1.40;;;23.30;51.50;;;;;;5029090;28;20211;-73
2022/07/06 02:31:03;;;;;;;1.40;1.30;;;23.30;51.50;;;;;;5028003;28;20170;-72
2022/07/06 02:33:29;;;;;;;3.13;1.80;;;23.20;51.60;;;;;;5045214;28;20508;-72
2022/07/06 02:36:16;;;;;;;1.97;1.40;;;23.20;51.60;;;;;;5064273;28;20175;-73
2022/07/06 02:38:41;;;;;;;1.50;1.30;;;23.20;51.60;;;;;;5051657;28;20266;-73
2022/07/06 02:41:18;;;;;;;1.87;1.40;;;23.20;51.60;;;;;;5052922;28;20279;-74
2022/07/06 02:43:44;;;;;;;1.60;1.30;;;23.10;51.70;;;;;;5071766;28;20241;-73
2022/07/06 02:46:11;;;;;;;1.83;1.40;;;23.10;51.60;;;;;;5054833;28;20769;-73
2022/07/06 02:48:37;;;;;;;2.10;2.00;;;23.00;51.80;;;;;;5040479;28;20209;-73
2022/07/06 02:51:03;;;;;;;3.40;1.50;;;23.10;51.80;;;;;;5036065;28;20269;-73
2022/07/06 02:53:48;;;;;;;2.87;1.80;;;23.10;51.90;;;;;;5041020;28;20523;-72
2022/07/06 02:56:14;;;;;;;1.83;1.40;;;23.10;51.90;;;;;;5057589;28;20188;-73
2022/07/06 02:58:40;;;;;;;1.50;1.40;;;23.10;51.90;;;;;;5043538;28;20450;-73
2022/07/06 03:01:05;;;;;;;1.87;1.30;;;23.10;51.90;;;;;;5056107;28;20185;-74
2022/07/06 03:03:32;;;;;;;2.90;1.40;;;23.00;51.80;;;;;;5074513;28;20175;-72
2022/07/06 03:05:58;;;;;;;1.40;1.30;;;23.10;51.90;;;;;;5075394;28;20478;-73
2022/07/06 03:08:23;;;;;;;1.83;1.67;;;23.00;51.90;;;;;;5053346;28;20206;-73
2022/07/06 03:10:49;;;;;;;3.07;1.50;;;23.00;51.90;;;;;;5054564;28;20346;-73
2022/07/06 03:13:24;;;;;;;1.40;1.30;;;23.00;51.90;;;;;;5057781;28;20276;-73
2022/07/06 03:16:05;;;;;;;3.00;1.50;;;23.00;52.10;;;;;;5061782;28;20189;-73
2022/07/06 03:19:20;;;;;;;3.30;1.40;;;22.90;52.00;;;;;;5071397;28;20183;-73
2022/07/06 03:21:48;;;;;;;2.00;1.57;;;22.70;51.80;;;;;;5046940;28;20309;-73
2022/07/06 03:24:13;;;;;;;1.67;1.40;;;22.40;52.20;;;;;;5044690;28;20289;-73
2022/07/06 03:26:39;;;;;;;1.60;1.40;;;22.30;52.60;;;;;;5030541;28;20596;-73
2022/07/06 03:29:05;;;;;;;1.90;1.53;;;22.30;52.70;;;;;;5029678;28;20210;-73
2022/07/06 03:31:30;;;;;;;2.47;1.70;;;22.20;52.90;;;;;;5043560;28;20186;-73
2022/07/06 03:33:56;;;;;;;2.13;1.70;;;22.20;53.00;;;;;;5046140;28;20183;-72
2022/07/06 03:36:22;;;;;;;3.17;1.87;;;22.10;53.10;;;;;;5021157;28;20527;-73
2022/07/06 03:39:40;;;;;;;3.40;1.87;;;22.10;53.00;;;;;;5029809;28;20180;-73
2022/07/06 03:42:06;;;;;;;1.67;1.57;;;22.00;53.10;;;;;;5046391;28;20296;-73
2022/07/06 03:48:00;;;;;;;2.77;1.43;;;21.90;53.40;;;;;;5029875;28;20237;-73
2022/07/06 03:50:26;;;;;;;1.53;1.40;;;21.80;53.60;;;;;;5033542;28;20178;-74
2022/07/06 03:52:52;;;;;;;2.50;1.70;;;21.80;53.90;;;;;;5038749;28;20385;-73
2022/07/06 03:55:18;;;;;;;2.73;2.00;;;21.90;53.80;;;;;;5047423;28;20185;-73
2022/07/06 03:57:44;;;;;;;1.80;1.70;;;21.90;53.70;;;;;;5032433;28;20377;-72
2022/07/06 04:00:10;;;;;;;2.17;1.50;;;22.00;53.80;;;;;;5052332;28;20171;-73
2022/07/06 04:02:36;;;;;;;3.30;1.50;;;22.20;53.70;;;;;;5061254;28;20177;-73
2022/07/06 04:05:01;;;;;;;2.20;1.60;;;22.20;53.20;;;;;;5057493;28;20178;-73
2022/07/06 04:07:27;;;;;;;1.70;1.53;;;22.30;53.50;;;;;;5044222;28;20493;-74
2022/07/06 04:09:56;;;;;;;2.00;1.57;;;22.30;53.40;;;;;;5039658;28;20172;-73
2022/07/06 04:12:22;;;;;;;1.90;1.77;;;22.40;53.30;;;;;;5055733;28;20167;-73
2022/07/06 04:18:09;;;;;;;2.40;1.70;;;22.60;53.10;;;;;;5073467;28;20181;-73
2022/07/06 04:20:35;;;;;;;3.10;1.47;;;22.60;53.00;;;;;;5053303;28;20173;-73
2022/07/06 04:23:01;;;;;;;5.70;1.70;;;22.60;53.00;;;;;;5045638;28;20167;-73
2022/07/06 04:25:27;;;;;;;3.00;1.60;;;22.60;53.00;;;;;;5072870;28;20280;-73
2022/07/06 04:27:53;;;;;;;3.50;1.40;;;22.60;53.00;;;;;;5055995;28;20206;-73
2022/07/06 04:33:17;;;;;;;3.57;1.70;;;22.70;52.90;;;;;;5014745;28;20186;-72
2022/07/06 04:35:43;;;;;;;1.83;1.67;;;22.70;52.80;;;;;;5049933;28;20212;-73
2022/07/06 04:38:09;;;;;;;1.80;1.43;;;22.70;52.80;;;;;;5068776;28;20176;-73
2022/07/06 04:40:34;;;;;;;1.43;1.30;;;22.70;52.80;;;;;;5041721;28;20217;-73
2022/07/06 04:43:00;;;;;;;2.40;1.50;;;22.80;52.80;;;;;;5053321;28;20527;-73
2022/07/06 04:45:26;;;;;;;2.07;1.80;;;22.70;52.70;;;;;;5050982;28;20178;-73
2022/07/06 04:48:42;;;;;;;2.10;1.70;;;22.80;52.80;;;;;;5065865;28;20219;-73
2022/07/06 04:51:08;;;;;;;1.90;1.50;;;22.70;52.80;;;;;;5055151;28;20543;-74
2022/07/06 04:53:33;;;;;;;2.07;1.57;;;22.70;52.70;;;;;;5056157;28;20175;-73
2022/07/06 04:55:59;;;;;;;1.93;1.30;;;22.70;52.80;;;;;;5056298;28;20175;-73
2022/07/06 04:58:25;;;;;;;1.83;1.50;;;22.80;52.80;;;;;;5038031;28;20197;-73
2022/07/06 05:00:50;;;;;;;2.60;1.70;;;22.80;52.70;;;;;;5047622;22;20219;-74
2022/07/06 05:03:16;;;;;;;2.33;1.60;;;22.90;52.70;;;;;;5048216;28;20204;-73
2022/07/06 05:05:41;;;;;;;1.70;1.50;;;22.90;52.50;;;;;;5072711;28;20199;-73
2022/07/06 05:08:08;;;;;;;1.93;1.50;;;23.00;52.50;;;;;;5053926;28;20306;-73
2022/07/06 05:10:48;;;;;;;2.13;1.90;;;23.10;52.40;;;;;;5053416;28;20194;-71
2022/07/06 05:13:14;;;;;;;3.30;1.93;;;23.10;52.30;;;;;;5052353;28;20194;-73
2022/07/06 05:16:04;;;;;;;2.03;1.83;;;23.20;52.20;;;;;;5047963;28;20202;-73
2022/07/06 05:18:30;;;;;;;1.60;1.50;;;23.30;52.10;;;;;;5075529;28;20179;-73
2022/07/06 05:20:56;;;;;;;2.00;1.53;;;23.30;52.10;;;;;;5058702;28;20216;-73
2022/07/06 05:26:43;;;;;;;1.63;1.50;;;23.40;52.00;;;;;;5067597;28;20443;-72
2022/07/06 05:29:38;;;;;;;4.03;2.33;;;23.50;51.90;;;;;;5061527;28;20568;-72
2022/07/06 05:32:13;;;;;;;3.50;2.00;;;23.50;52.00;;;;;;5053027;28;20647;-73
2022/07/06 05:34:39;;;;;;;3.07;1.90;;;23.50;51.80;;;;;;5061868;28;20179;-73
2022/07/06 05:37:15;;;;;;;2.60;1.77;;;23.60;51.70;;;;;;5058961;28;20190;-73
2022/07/06 05:39:45;;;;;;;1.70;1.57;;;23.70;51.70;;;;;;5071544;28;20199;-72
2022/07/06 05:42:10;;;;;;;3.47;2.03;;;23.70;51.70;;;;;;5052684;28;20190;-72
2022/07/06 05:44:36;;;;;;;3.17;2.00;;;23.80;51.70;;;;;;5053589;28;20175;-73
2022/07/06 05:52:44;;;;;;;4.87;2.00;;;24.00;51.40;;;;;;5072109;28;20209;-73
2022/07/06 05:55:11;;;;;;;2.53;1.90;;;24.10;51.30;;;;;;5056634;28;20172;-73
2022/07/06 05:57:39;;;;;;;3.17;2.20;;;24.20;51.20;;;;;;5064115;28;20274;-72
2022/07/06 06:00:21;;;;;;;3.13;2.00;;;24.30;51.10;;;;;;5048510;28;20385;-73
2022/07/06 06:02:47;;;;;;;2.63;1.90;;;24.40;51.00;;;;;;5071028;28;20191;-73
2022/07/06 06:05:15;;;;;;;3.23;1.93;;;24.40;50.90;;;;;;5054844;28;20457;-72
2022/07/06 06:07:41;;;;;;;3.17;1.93;;;24.40;50.80;;;;;;5040475;28;20522;-72
2022/07/06 06:10:10;;;;;;;2.33;2.03;;;24.50;50.90;;;;;;5039574;28;20642;-73
2022/07/06 06:12:56;;;;;;;2.43;2.10;;;24.60;50.70;;;;;;5042975;28;20318;-72
2022/07/06 06:15:43;;;;;;;3.67;2.20;;;24.70;50.70;;;;;;5039776;28;20178;-73
2022/07/06 06:18:09;;;;;;;2.63;1.83;;;24.80;50.70;;;;;;5055240;28;20206;-72
2022/07/06 06:20:37;;;;;;;4.37;2.03;;;24.90;50.60;;;;;;5046576;28;20203;-73
2022/07/06 06:23:06;;;;;;;4.53;2.00;;;25.10;50.40;;;;;;5047878;28;20549;-72
2022/07/06 06:26:15;;;;;;;3.50;2.30;;;25.10;50.30;;;;;;5050794;28;20176;-73
2022/07/06 06:29:13;;;;;;;2.53;2.30;;;25.10;50.30;;;;;;5061612;28;20207;-72
2022/07/06 06:31:39;;;;;;;5.70;2.30;;;25.10;50.50;;;;;;5055145;28;20489;-73
2022/07/06 06:34:05;;;;;;;5.87;2.10;;;25.00;50.30;;;;;;5051001;28;20736;-72
2022/07/06 06:36:34;;;;;;;7.27;2.23;;;25.00;50.30;;;;;;5060401;28;20179;-73
2022/07/06 06:39:02;;;;;;;5.37;1.97;;;25.10;50.30;;;;;;5038300;28;20183;-73
2022/07/06 06:41:59;;;;;;;3.93;2.27;;;25.00;50.30;;;;;;5032629;28;20482;-73
2022/07/06 06:44:25;;;;;;;4.00;1.87;;;25.20;50.20;;;;;;5044123;28;20457;-73
2022/07/06 06:46:52;;;;;;;4.63;2.10;;;25.30;50.00;;;;;;5031716;28;20286;-73
2022/07/06 06:49:18;;;;;;;7.67;2.53;;;25.30;50.00;;;;;;5042618;28;20200;-73
2022/07/06 06:51:45;;;;;;;3.07;2.13;;;25.20;49.90;;;;;;5021259;28;20199;-74
2022/07/06 06:54:12;;;;;;;5.30;2.23;;;25.20;50.00;;;;;;5042221;28;20429;-73
2022/07/06 06:56:38;;;;;;;3.83;1.70;;;25.10;50.00;;;;;;5035047;28;20169;-73
2022/07/06 06:59:05;;;;;;;4.77;2.10;;;25.10;50.00;;;;;;5041039;28;20172;-73
2022/07/06 07:01:32;;;;;;;3.60;1.90;;;25.10;49.90;;;;;;5024216;28;20231;-72
2022/07/06 07:15:15;;;;;;;6.37;1.90;;;25.20;49.50;;;;;;5040803;28;20171;-74
2022/07/06 07:17:43;;;;;;;3.63;1.80;;;25.30;49.40;;;;;;5032546;28;20267;-73
2022/07/06 07:20:10;;;;;;;2.10;1.67;;;25.30;49.50;;;;;;5033701;28;20546;-73
2022/07/06 07:22:37;;;;;;;2.87;1.70;;;25.30;49.40;;;;;;5028338;28;20169;-73
2022/07/06 07:25:05;;;;;;;3.70;1.90;;;25.30;49.40;;;;;;5030609;28;20271;-73
2022/07/06 07:27:32;;;;;;;2.37;1.70;;;25.40;49.40;;;;;;5030997;28;20176;-74
2022/07/06 07:29:58;;;;;;;4.57;1.63;;;25.60;49.20;;;;;;5038911;28;20207;-73
2022/07/06 07:32:24;;;;;;;5.63;1.50;;;25.60;49.10;;;;;;5047399;28;20172;-73
2022/07/06 07:34:51;;;;;;;2.77;1.50;;;25.60;49.00;;;;;;5034784;28;20262;-73
2022/07/06 07:37:17;;;;;;;2.63;1.50;;;25.60;49.00;;;;;;5036289;28;20256;-74
2022/07/06 07:39:42;;;;;;;4.23;1.50;;;25.40;48.90;;;;;;5024714;28;20243;-73
2022/07/06 07:42:08;;;;;;;1.60;1.50;;;25.30;49.00;;;;;;5033203;28;20616;-75
2022/07/06 07:44:33;;;;;;;3.03;1.53;;;25.30;49.20;;;;;;5037336;28;20176;-73
2022/07/06 07:46:59;;;;;;;2.87;1.40;;;25.20;49.20;;;;;;5039056;28;20176;-73
2022/07/06 07:49:25;;;;;;;2.23;1.50;;;25.10;49.20;;;;;;5046422;28;20214;-73
2022/07/06 07:51:51;;;;;;;2.77;1.67;;;25.10;49.30;;;;;;5052411;28;20698;-73
2022/07/06 07:54:17;;;;;;;2.37;1.50;;;25.10;49.20;;;;;;5059624;28;20745;-72
2022/07/06 07:56:47;;;;;;;2.13;1.60;;;25.10;49.40;;;;;;5059733;28;20175;-72
2022/07/06 07:59:12;;;;;;;2.23;1.80;;;25.20;49.20;;;;;;5057522;28;20561;-73
2022/07/06 08:01:41;;;;;;;4.10;1.60;;;25.20;48.80;;;;;;5060944;28;20198;-73
2022/07/06 08:04:08;;;;;;;2.40;1.50;;;25.30;48.90;;;;;;5052396;28;20191;-73
2022/07/06 08:09:20;;;;;;;3.93;1.40;;;25.40;48.90;;;;;;5055305;28;20256;-72
2022/07/06 08:11:47;;;;;;;2.27;1.60;;;25.40;49.30;;;;;;5053599;28;20176;-72
2022/07/06 08:14:14;;;;;;;1.40;1.30;;;25.40;48.70;;;;;;5064538;28;20471;-74
2022/07/06 08:16:41;;;;;;;1.30;1.10;;;25.40;48.60;;;;;;5051270;28;20194;-74
2022/07/06 08:19:07;;;;;;;2.07;1.43;;;25.40;48.50;;;;;;5058880;28;20175;-73
2022/07/06 08:21:33;;;;;;;2.43;1.40;;;25.40;48.50;;;;;;5051970;28;20282;-74
2022/07/06 08:24:00;;;;;;;3.00;1.57;;;25.50;48.60;;;;;;5060692;28;20341;-73
2022/07/06 08:26:30;;;;;;;2.60;1.47;;;25.60;48.50;;;;;;5028374;28;20176;-72
2022/07/06 08:29:27;;;;;;;2.70;1.70;;;25.70;48.40;;;;;;5045706;28;20498;-73
2022/07/06 08:31:53;;;;;;;3.27;1.60;;;25.90;48.30;;;;;;5060637;28;20274;-73
2022/07/06 08:37:08;;;;;;;2.80;1.60;;;27.20;46.80;;;;;;5059324;28;20237;-72
2022/07/06 08:40:10;;;;;;;1.77;1.43;;;27.00;46.80;;;;;;5059535;28;20186;-73
2022/07/06 08:42:36;;;;;;;1.83;1.58;;;26.90;47.00;;;;;;5043211;28;20187;-72
2022/07/06 08:45:18;;;;;;;1.93;1.40;;;28.10;46.00;;;;;;5070122;28;20172;-72
2022/07/06 08:51:13;;;;;;;2.23;1.43;;;27.00;46.50;;;;;;5063299;28;20182;-73
2022/07/06 08:53:41;;;;;;;2.43;1.37;;;26.70;46.80;;;;;;5068076;28;20291;-73
2022/07/06 08:56:08;;;;;;;2.13;1.30;;;26.50;47.00;;;;;;5072439;28;20266;-73
2022/07/06 08:58:34;;;;;;;3.07;1.43;;;26.30;47.20;;;;;;5076129;28;20269;-73
2022/07/06 09:01:22;;;;;;;1.80;1.27;;;26.10;47.30;;;;;;5060397;28;20173;-73
2022/07/06 09:03:54;;;;;;;2.60;1.40;;;26.00;47.30;;;;;;5072371;28;20206;-73
2022/07/06 09:06:27;;;;;;;3.20;1.50;;;25.90;47.40;;;;;;5068813;28;20243;-72
2022/07/06 09:08:56;;;;;;;2.70;1.30;;;26.10;47.70;;;;;;5070235;28;20302;-74
2022/07/06 09:11:25;;;;;;;2.00;1.40;;;26.10;47.30;;;;;;5066921;28;20227;-74
2022/07/06 09:13:52;;;;;;;2.50;1.47;;;26.00;47.40;;;;;;5063289;28;20718;-73
2022/07/06 09:19:53;;;;;;;3.57;1.40;;;26.00;47.40;;;;;;5069188;28;20182;-73
2022/07/06 09:25:27;;;;;;;1.40;1.30;;;25.90;47.10;;;;;;5062277;28;20595;-73
2022/07/06 09:27:56;;;;;;;1.77;1.37;;;25.80;47.50;;;;;;5066003;28;20232;-72
2022/07/06 09:30:24;;;;;;;1.23;1.03;;;25.80;47.70;;;;;;5069772;28;20175;-73
2022/07/06 09:32:52;;;;;;;2.07;1.60;;;25.70;47.60;;;;;;5067245;28;20739;-73
2022/07/06 09:35:31;;;;;;;2.60;1.40;;;25.80;47.60;;;;;;5071662;28;20168;-72
2022/07/06 09:38:11;;;;;;;2.50;1.30;;;25.80;46.70;;;;;;5073785;28;20219;-72
2022/07/06 09:40:49;;;;;;;2.27;1.50;;;25.90;47.20;;;;;;5067573;28;20294;-73
2022/07/06 09:43:22;;;;;;;1.73;1.40;;;26.00;47.50;;;;;;5069535;28;20211;-74
2022/07/06 09:45:57;;;;;;;1.80;1.40;;;26.10;47.30;;;;;;5073654;28;20186;-73
2022/07/06 09:48:25;;;;;;;3.23;1.30;;;26.20;47.20;;;;;;5075824;28;20199;-73
2022/07/06 09:51:02;;;;;;;1.30;1.20;;;26.30;47.20;;;;;;5067692;28;20179;-73
2022/07/06 09:53:28;;;;;;;3.20;1.60;;;26.30;47.10;;;;;;5075457;28;20172;-73
2022/07/06 09:55:57;;;;;;;1.57;1.30;;;26.40;47.10;;;;;;5063975;28;20168;-73
2022/07/06 09:58:24;;;;;;;2.07;1.27;;;26.40;47.00;;;;;;5075642;28;20214;-73
2022/07/06 10:00:50;;;;;;;1.57;1.20;;;26.40;47.00;;;;;;5067761;28;20205;-72
2022/07/06 10:03:18;;;;;;;2.13;1.30;;;26.40;47.00;;;;;;5059305;28;20176;-73
2022/07/06 10:05:46;;;;;;;2.70;1.30;;;26.30;46.90;;;;;;5058619;28;20606;-74
2022/07/06 10:08:13;;;;;;;1.67;1.20;;;26.30;46.90;;;;;;5076378;28;20490;-73
2022/07/06 10:10:40;;;;;;;1.77;1.30;;;26.30;47.00;;;;;;5058623;28;20186;-72
2022/07/06 10:13:07;;;;;;;1.80;1.33;;;26.40;46.90;;;;;;5059174;28;20241;-73
2022/07/06 10:15:36;;;;;;;1.93;1.30;;;26.40;46.90;;;;;;5076028;28;20168;-73
2022/07/06 10:18:09;;;;;;;1.83;1.23;;;26.40;46.80;;;;;;5058889;28;20172;-74
2022/07/06 10:20:37;;;;;;;1.70;1.20;;;26.50;46.80;;;;;;5058503;28;20234;-72
2022/07/06 10:23:06;;;;;;;1.70;1.30;;;26.50;46.80;;;;;;5057431;28;20190;-72
2022/07/06 10:25:32;;;;;;;2.23;1.20;;;26.50;46.70;;;;;;5057976;28;20180;-74
2022/07/06 10:28:13;;;;;;;2.80;1.30;;;26.50;46.50;;;;;;5076125;28;20184;-73
2022/07/06 10:30:39;;;;;;;2.23;1.30;;;26.50;46.80;;;;;;5059191;28;20175;-73
2022/07/06 10:33:05;;;;;;;4.10;1.47;;;26.50;46.50;;;;;;5075825;28;20178;-74
2022/07/06 10:35:32;;;;;;;2.13;1.40;;;26.50;46.60;;;;;;5058112;28;20306;-77
2022/07/06 10:38:05;;;;;;;;;;;26.40;46.00;;;;;;5058543;28;20182;-74
2022/07/06 10:43:38;;;;;;;1.83;1.30;;;26.40;46.50;;;;;;5072304;28;20011;-73
2022/07/06 10:46:23;;;;;;;1.57;1.30;;;26.50;46.50;;;;;;5070102;28;20182;-74
2022/07/06 10:48:51;;;;;;;1.97;1.20;;;26.50;46.40;;;;;;5048787;28;20272;-74
2022/07/06 10:51:31;;;;;;;1.57;1.40;;;26.50;46.40;;;;;;5075267;28;20164;-74
2022/07/06 10:54:04;;;;;;;1.83;1.33;;;26.50;45.90;;;;;;5052934;28;20160;-74
2022/07/06 10:56:38;;;;;;;1.33;1.20;;;26.50;46.20;;;;;;5071578;28;20202;-74
2022/07/06 10:59:21;;;;;;;2.27;1.30;;;26.50;46.40;;;;;;5052637;28;20564;-72
2022/07/06 11:02:17;;;;;;;1.30;1.20;;;26.40;46.10;;;;;;5069373;28;20175;-73
2022/07/06 11:04:45;;;;;;;2.40;1.20;;;26.40;46.10;;;;;;5042609;28;20600;-73
2022/07/06 11:07:15;;;;;;;2.50;1.40;;;26.50;45.40;;;;;;5071156;28;20262;-73
2022/07/06 11:09:47;;;;;;;1.87;1.20;;;26.50;46.00;;;;;;5054279;28;20592;-73
2022/07/06 11:12:20;;;;;;;2.87;1.40;;;26.50;46.20;;;;;;5050737;28;20549;-73
2022/07/06 11:14:47;;;;;;;1.37;1.27;;;26.50;46.30;;;;;;5075615;28;20566;-73
2022/07/06 11:17:14;;;;;;;1.83;1.23;;;26.40;46.20;;;;;;5055720;28;20278;-73
2022/07/06 11:19:58;;;;;;;1.40;1.30;;;26.40;46.00;;;;;;5034527;28;20187;-73
2022/07/06 11:22:26;;;;;;;4.90;1.50;;;26.40;46.10;;;;;;5036261;28;20176;-73
2022/07/06 11:24:53;;;;;;;2.27;1.20;;;26.50;45.60;;;;;;5049613;28;20486;-73
2022/07/06 11:27:22;;;;;;;4.03;1.40;;;26.50;46.10;;;;;;5054796;28;20508;-73
2022/07/06 11:29:47;;;;;;;1.30;1.20;;;26.50;46.10;;;;;;5055419;28;20256;-73
2022/07/06 11:32:14;;;;;;;3.20;1.40;;;26.60;46.00;;;;;;5070204;28;20171;-73
2022/07/06 11:34:44;;;;;;;1.83;1.40;;;26.70;45.30;;;;;;5068159;28;20175;-73
2022/07/06 11:37:20;;;;;;;2.63;1.37;;;26.70;45.50;;;;;;5074366;28;20263;-74
2022/07/06 11:39:47;;;;;;;3.73;1.50;;;26.70;45.90;;;;;;5073690;28;20193;-73
2022/07/06 11:42:16;;;;;;;2.00;1.30;;;26.70;43.00;;;;;;5074696;28;20183;-73
2022/07/06 11:44:42;;;;;;;2.97;1.20;;;26.60;44.70;;;;;;5070254;28;20248;-73
2022/07/06 11:47:09;;;;;;;1.87;1.20;;;26.60;45.40;;;;;;5068929;28;20175;-73
2022/07/06 11:49:37;;;;;;;1.70;1.37;;;26.60;44.90;;;;;;5067797;28;20235;-74
2022/07/06 11:52:11;;;;;;;2.47;1.30;;;26.60;45.50;;;;;;5066128;28;20519;-73
2022/07/06 11:54:37;;;;;;;;;;;26.60;45.60;;;;;;5060380;28;20198;-73
2022/07/06 11:57:04;;;;;;;1.90;1.30;;;26.60;45.60;;;;;;5058892;28;20313;-73
2022/07/06 11:59:37;;;;;;;2.00;1.40;;;26.50;45.70;;;;;;5054560;28;20276;-73
2022/07/06 12:02:23;;;;;;;1.57;1.40;;;26.50;45.70;;;;;;5050135;28;20469;-73
2022/07/06 12:04:50;;;;;;;2.37;1.40;;;26.40;45.60;;;;;;5056475;28;20269;-73
2022/07/06 12:07:17;;;;;;;2.07;1.30;;;26.30;45.70;;;;;;5050330;28;20175;-73
2022/07/06 12:09:45;;;;;;;2.70;1.43;;;26.30;45.60;;;;;;5053492;28;20203;-73
2022/07/06 12:12:12;;;;;;;2.67;1.30;;;26.30;45.40;;;;;;5052166;28;20833;-73
2022/07/06 12:14:40;;;;;;;4.60;1.40;;;26.40;45.80;;;;;;5052206;28;20172;-73
2022/07/06 12:17:15;;;;;;;1.97;1.50;;;26.30;45.40;;;;;;5048678;28;20195;-72
2022/07/06 12:19:42;;;;;;;1.60;1.20;;;26.30;45.20;;;;;;5050271;28;20463;-73
2022/07/06 12:22:09;;;;;;;2.03;1.00;;;26.40;45.70;;;;;;5053152;28;20268;-74
2022/07/06 12:24:37;;;;;;;2.33;1.40;;;26.50;45.50;;;;;;5035335;28;20630;-73
2022/07/06 12:27:33;;;;;;;1.70;1.40;;;26.50;45.30;;;;;;5051979;28;20175;-73
2022/07/06 12:30:09;;;;;;;2.63;1.50;;;26.50;45.50;;;;;;5070974;28;20258;-73
2022/07/06 12:32:36;;;;;;;2.67;1.43;;;26.40;45.70;;;;;;5073825;28;20183;-73
2022/07/06 12:35:07;;;;;;;3.30;1.40;;;26.50;45.70;;;;;;5073221;28;20179;-73
2022/07/06 12:37:33;;;;;;;2.83;1.30;;;26.40;45.50;;;;;;5069912;28;20734;-72
2022/07/06 12:40:00;;;;;;;1.70;1.30;;;26.40;45.70;;;;;;5070083;28;20258;-73
2022/07/06 12:42:27;;;;;;;2.30;1.50;;;26.40;45.60;;;;;;5070069;28;20178;-73
2022/07/06 12:44:53;;;;;;;2.30;1.47;;;26.40;45.30;;;;;;5069438;28;20176;-73
2022/07/06 12:47:23;;;;;;;1.90;1.47;;;26.40;45.50;;;;;;5072384;28;20181;-74
2022/07/06 12:50:04;;;;;;;3.10;1.50;;;26.40;45.50;;;;;;5072347;28;20234;-74
2022/07/06 12:52:30;;;;;;;4.93;1.77;;;26.40;45.40;;;;;;5074798;28;20595;-73
2022/07/06 12:54:59;;;;;;;3.83;1.40;;;26.50;45.50;;;;;;5054822;28;20274;-73
2022/07/06 12:57:26;;;;;;;2.10;1.40;;;26.50;45.60;;;;;;5050679;28;20168;-74
2022/07/06 12:59:57;;;;;;;2.30;1.40;;;26.50;45.60;;;;;;5071639;28;20254;-73
2022/07/06 13:02:30;;;;;;;3.87;1.30;;;26.40;44.80;;;;;;5061211;28;20518;-73
2022/07/06 13:05:05;;;;;;;1.57;1.33;;;26.50;45.30;;;;;;5051842;28;20183;-73
2022/07/06 13:07:35;;;;;;;1.80;1.30;;;26.40;45.40;;;;;;5053838;28;20445;-73
2022/07/06 13:10:03;;;;;;;3.13;1.40;;;26.50;45.40;;;;;;5051012;28;20199;-73
2022/07/06 13:12:29;;;;;;;2.67;1.33;;;26.50;45.40;;;;;;5080842;28;20214;-73
2022/07/06 13:14:56;;;;;;;2.93;1.50;;;26.50;45.40;;;;;;5056341;28;20198;-73
2022/07/06 13:17:22;;;;;;;4.30;1.60;;;26.50;45.20;;;;;;5057449;28;20176;-73
2022/07/06 13:19:48;;;;;;;1.93;1.40;;;26.50;44.80;;;;;;5071882;28;20190;-73
2022/07/06 13:22:15;;;;;;;2.57;1.40;;;26.50;45.20;;;;;;5072787;28;20203;-73
2022/07/06 13:24:41;;;;;;;2.30;1.70;;;26.50;44.70;;;;;;5040705;28;20573;-73
2022/07/06 13:27:07;;;;;;;3.23;1.40;;;26.50;44.30;;;;;;5057368;28;20259;-73
2022/07/06 13:29:33;;;;;;;2.73;1.50;;;26.50;44.90;;;;;;5055745;28;20585;-73
2022/07/06 13:31:58;;;;;;;1.97;1.40;;;26.50;45.30;;;;;;5070263;28;20242;-73
2022/07/06 13:34:24;;;;;;;3.90;1.63;;;26.50;45.30;;;;;;5051018;28;20171;-73
2022/07/06 13:36:51;;;;;;;;;;;26.50;45.40;;;;;;5052231;28;20393;-73
2022/07/06 13:39:17;;;;;;;2.10;1.30;;;26.40;45.10;;;;;;5053273;28;19905;-73
2022/07/06 13:41:42;;;;;;;2.23;1.30;;;26.40;45.00;;;;;;5073739;28;20164;-73
2022/07/06 13:44:12;;;;;;;2.40;1.40;;;26.40;44.90;;;;;;5052799;28;20182;-73
2022/07/06 13:46:42;;;;;;;3.83;1.53;;;26.50;45.50;;;;;;5052200;28;20186;-73
2022/07/06 13:49:08;;;;;;;1.53;1.43;;;26.50;45.20;;;;;;5055296;28;20482;-73
2022/07/06 13:51:34;;;;;;;2.23;1.40;;;26.50;45.20;;;;;;5055076;28;20168;-73
2022/07/06 13:54:00;;;;;;;2.43;1.50;;;26.50;45.10;;;;;;5057114;28;20171;-73
2022/07/06 13:56:26;;;;;;;2.17;1.50;;;26.50;45.20;;;;;;5054276;28;20233;-73
2022/07/06 13:58:52;;;;;;;2.20;1.60;;;26.50;45.00;;;;;;5052990;28;20179;-73
2022/07/06 14:01:18;;;;;;;2.13;1.40;;;26.50;45.10;;;;;;5053103;28;20175;-75
2022/07/06 14:03:44;;;;;;;3.83;1.43;;;26.50;45.10;;;;;;5052601;28;20294;-73
2022/07/06 14:06:11;;;;;;;2.60;1.60;;;26.50;44.60;;;;;;5053635;28;20270;-73
2022/07/06 14:08:38;;;;;;;2.80;1.40;;;26.60;45.20;;;;;;5054709;28;20211;-73